Winnipegosis, Canada
Current Conditions -  °F | °C
As of 8:00 PM on Tuesday 21 Oct 2014 (Local Time) from CYDN Reporting Station
Clear Clear  
Wind Chill: 54°   Ceiling: Unl
Heat Index: 54°   Visibility: 9mi
Dew Point: 43°   Wind: 12mph
Humidity: 67%   Direction: 120°ESE
Pressure: 29.67"   Gusts: NA
Location:  51.65°N, 99.92°W
Report Text: CYDN 220100Z AUTO 12010KT 9SM CLR 12/06 A2967 RMK SLP052 DENSITY ALT 1100FT
Loading
Personal Weather Stations






























Interactive Weather Map
Tropical Storm Tracking
New forecast layout! Learn more

10-Day Weather Forecast

Advertisements
Track Severe Weather on mobile